Time;durP1;ratioP1;P1;durP2;ratioP2;P2;SDS_P1;SDS_P2;PMS_P1;PMS_P2;Temp;Humidity;BMP_temperature;BMP_pressure;BME280_temperature;BME280_humidity;BME280_pressure;Samples;Min_cycle;Max_cycle;Signal;HPM_P1;HPM_P2
2024/01/29 00:01:36;;;;;;;2.83;1.10;;;;;;;5.88;55.04;102173.25;6098425;28;20043;-73
2024/01/29 00:04:31;;;;;;;3.00;0.95;;;;;;;5.90;55.25;102181.91;6098778;28;20108;-75
2024/01/29 00:07:27;;;;;;;2.60;0.97;;;;;;;6.08;54.08;102171.34;6098131;28;20102;-74
2024/01/29 00:10:27;;;;;;;2.45;0.85;;;;;;;6.16;53.47;102166.53;6095495;28;20029;-73
2024/01/29 00:13:26;;;;;;;2.85;1.20;;;;;;;6.12;52.96;102160.56;6094399;28;20051;-76
2024/01/29 00:16:21;;;;;;;1.35;0.80;;;;;;;6.21;53.37;102162.72;6096581;28;20040;-74
2024/01/29 00:19:20;;;;;;;1.03;0.63;;;;;;;6.09;52.91;102138.81;6097725;28;20048;-74
2024/01/29 00:22:15;;;;;;;2.17;0.90;;;;;;;6.20;52.92;102162.78;6080589;28;20024;-75
2024/01/29 00:25:10;;;;;;;2.37;1.00;;;;;;;6.16;52.97;102169.16;6097936;28;20395;-73
2024/01/29 00:28:07;;;;;;;4.05;0.90;;;;;;;5.93;52.58;102142.25;6097467;28;20380;-74
2024/01/29 00:31:02;;;;;;;2.97;0.85;;;;;;;5.99;53.00;102162.16;6096599;28;20029;-74
2024/01/29 00:33:58;;;;;;;2.53;1.00;;;;;;;6.04;52.88;102162.75;6097280;28;20036;-74
2024/01/29 00:36:53;;;;;;;1.73;0.73;;;;;;;5.79;53.53;102159.66;6097349;28;20471;-75
2024/01/29 00:39:50;;;;;;;1.90;1.00;;;;;;;5.81;53.69;102161.31;6097483;28;20029;-74
2024/01/29 00:42:45;;;;;;;1.70;0.88;;;;;;;5.85;53.12;102149.72;6097272;28;20021;-74
2024/01/29 00:45:40;;;;;;;2.77;0.90;;;;;;;5.81;53.19;102142.88;6097359;28;20416;-74
2024/01/29 00:48:35;;;;;;;2.07;0.70;;;;;;;5.90;52.75;102147.69;6095890;28;20029;-75
2024/01/29 00:51:31;;;;;;;2.27;0.70;;;;;;;5.92;52.67;102156.34;6096964;28;20104;-76
2024/01/29 00:54:26;;;;;;;2.85;0.90;;;;;;;5.88;51.98;102141.66;6102744;28;20029;-75
2024/01/29 00:57:21;;;;;;;2.90;0.97;;;;;;;5.96;52.01;102146.50;6100222;28;20029;-75
2024/01/29 01:00:17;;;;;;;2.50;0.70;;;;;;;5.85;52.30;102138.31;6099344;28;20260;-75
2024/01/29 01:03:13;;;;;;;0.93;0.53;;;;;;;6.04;51.20;102140.81;6101063;28;20046;-76
2024/01/29 01:06:10;;;;;;;2.63;0.93;;;;;;;6.17;50.33;102128.72;6101144;28;20267;-75
2024/01/29 01:09:06;;;;;;;1.00;0.63;;;;;;;6.30;49.83;102140.28;6099311;28;20067;-75
2024/01/29 01:12:02;;;;;;;1.73;0.70;;;;;;;6.34;49.40;102147.06;6100833;28;20017;-76
2024/01/29 01:15:09;;;;;;;2.20;0.80;;;;;;;6.13;49.23;102127.19;6086236;28;20048;-75
2024/01/29 01:18:05;;;;;;;;;;;;;;;6.32;48.90;102155.06;6098542;28;20036;-75
2024/01/29 01:21:00;;;;;;;1.37;0.70;;;;;;;6.46;48.52;102142.00;6102814;28;19909;-74
2024/01/29 01:23:55;;;;;;;0.87;0.50;;;;;;;6.55;47.85;102146.75;6104025;28;20275;-75
2024/01/29 01:26:51;;;;;;;0.90;0.67;;;;;;;6.41;48.02;102143.19;6096943;28;20041;-76
2024/01/29 01:29:46;;;;;;;1.17;0.60;;;;;;;6.39;48.00;102126.59;6099193;28;20017;-76
2024/01/29 01:32:45;;;;;;;3.20;0.80;;;;;;;6.37;47.39;102128.47;6102583;28;20036;-76
2024/01/29 01:35:44;;;;;;;2.17;0.73;;;;;;;6.46;47.13;102147.28;6104095;28;20267;-75
2024/01/29 01:38:39;;;;;;;1.17;0.68;;;;;;;6.41;47.41;102132.66;6103681;28;20037;-76
2024/01/29 01:41:34;;;;;;;3.67;0.60;;;;;;;6.38;46.96;102111.75;6102524;28;20517;-76
2024/01/29 01:44:31;;;;;;;1.47;0.73;;;;;;;6.35;47.38;102127.72;6097451;28;20279;-75
2024/01/29 01:47:26;;;;;;;2.03;0.73;;;;;;;6.28;47.36;102118.44;6100192;28;20036;-76
2024/01/29 01:50:22;;;;;;;0.77;0.55;;;;;;;6.09;47.95;102109.88;6100184;28;20021;-76
2024/01/29 01:53:17;;;;;;;3.50;0.70;;;;;;;6.05;47.90;102106.53;6102155;28;20066;-76
2024/01/29 01:56:14;;;;;;;2.80;0.70;;;;;;;6.08;48.18;102124.81;6101190;28;20032;-75
2024/01/29 01:59:10;;;;;;;1.20;0.50;;;;;;;5.93;48.37;102121.19;6101781;28;20041;-76
2024/01/29 02:02:07;;;;;;;2.28;0.70;;;;;;;5.71;49.02;102119.72;6103010;28;20079;-76
2024/01/29 02:05:03;;;;;;;2.00;0.63;;;;;;;5.59;49.17;102107.25;6100964;28;20032;-76
2024/01/29 02:07:58;;;;;;;2.03;0.75;;;;;;;5.54;49.92;102115.38;6098013;28;20460;-75
2024/01/29 02:11:13;;;;;;;0.80;0.53;;;;;;;5.35;50.31;102112.00;6102411;28;20037;-76
2024/01/29 02:14:23;;;;;;;1.60;0.50;;;;;;;5.10;51.06;102085.22;6099701;28;20283;-75
2024/01/29 02:17:49;;;;;;;3.03;0.80;;;;;;;4.87;51.45;102089.00;6081523;28;20174;-76
2024/01/29 02:20:47;;;;;;;2.28;0.68;;;;;;;4.98;51.70;102110.34;6082120;28;20033;-75
2024/01/29 02:23:45;;;;;;;1.85;0.77;;;;;;;4.79;53.20;102092.00;6100620;28;20024;-75
2024/01/29 02:26:45;;;;;;;3.83;1.10;;;;;;;4.75;53.14;102106.25;6105249;28;20375;-76
2024/01/29 02:29:40;;;;;;;3.28;0.85;;;;;;;4.64;52.58;102091.91;6106303;28;20036;-76
2024/01/29 02:32:40;;;;;;;1.97;0.83;;;;;;;4.48;53.95;102083.94;6105823;28;20020;-76
2024/01/29 02:35:38;;;;;;;3.60;0.82;;;;;;;4.33;54.04;102063.63;6105258;28;20103;-75
2024/01/29 02:38:37;;;;;;;2.00;0.50;;;;;;;4.18;53.73;102040.75;6100081;28;20177;-75
2024/01/29 02:41:35;;;;;;;2.58;0.77;;;;;;;4.39;54.27;102080.88;6088153;28;20143;-75
2024/01/29 02:44:31;;;;;;;1.83;0.60;;;;;;;4.24;54.39;102056.19;6100964;28;20078;-76
2024/01/29 02:47:26;;;;;;;2.72;0.70;;;;;;;4.29;55.28;102069.13;6105291;28;20380;-76
2024/01/29 02:50:22;;;;;;;1.73;0.70;;;;;;;4.32;53.98;102072.41;6104859;28;20049;-76
2024/01/29 02:53:18;;;;;;;2.30;0.63;;;;;;;4.35;54.57;102063.56;6103818;28;20056;-75
2024/01/29 02:56:15;;;;;;;0.90;0.50;;;;;;;4.30;54.42;102082.16;6103548;28;20074;-75
2024/01/29 02:59:41;;;;;;;2.00;0.63;;;;;;;3.84;56.30;102067.69;6082777;28;20031;-76
2024/01/29 03:02:51;;;;;;;3.20;0.60;;;;;;;3.43;58.73;102066.91;6088661;28;20052;-76
2024/01/29 03:05:52;;;;;;;0.35;0.35;;;;;;;3.16;60.98;102083.84;6099433;28;20032;-76
2024/01/29 03:08:52;;;;;;;2.65;0.70;;;;;;;2.97;63.73;102098.63;6101672;28;20167;-75
2024/01/29 03:11:48;;;;;;;1.48;0.60;;;;;;;2.64;70.11;102097.38;6077703;28;20074;-76
2024/01/29 03:15:23;;;;;;;;;;;;;;;;;;;;;
2024/01/29 03:18:21;;;;;;;2.08;0.70;;;;;;;2.31;72.27;102110.88;6099265;28;20346;-77
2024/01/29 03:21:16;;;;;;;1.63;0.70;;;;;;;2.27;74.17;102111.91;6102385;28;20025;-75
2024/01/29 03:24:12;;;;;;;1.97;0.63;;;;;;;2.13;74.08;102095.03;6104791;28;20029;-75
2024/01/29 03:27:07;;;;;;;1.27;0.60;;;;;;;2.25;73.93;102108.53;6103266;28;20017;-75
2024/01/29 03:30:04;;;;;;;1.60;0.68;;;;;;;2.30;71.92;102114.41;6101910;28;20112;-75
2024/01/29 03:32:59;;;;;;;3.22;0.80;;;;;;;2.10;80.68;102124.78;6102644;28;20495;-75
2024/01/29 03:35:58;;;;;;;1.08;0.68;;;;;;;1.83;86.21;102091.81;6102048;28;20020;-75
2024/01/29 03:38:54;;;;;;;1.92;0.60;;;;;;;1.79;87.03;102113.75;6101499;28;20044;-75
2024/01/29 03:41:49;;;;;;;1.50;0.82;;;;;;;2.00;80.65;102107.72;6099850;28;20044;-75
2024/01/29 03:44:45;;;;;;;2.42;0.75;;;;;;;2.53;72.74;102084.72;6100855;28;20585;-74
2024/01/29 03:47:40;;;;;;;3.20;0.93;;;;;;;3.68;63.86;102087.66;6103085;28;20047;-75
2024/01/29 03:50:36;;;;;;;1.53;0.60;;;;;;;4.22;59.93;102084.28;6103319;28;20032;-74
2024/01/29 03:53:32;;;;;;;1.75;0.75;;;;;;;4.61;57.12;102087.66;6101476;28;20048;-75
2024/01/29 03:56:28;;;;;;;1.98;0.60;;;;;;;4.83;55.33;102090.09;6100150;28;20460;-75
2024/01/29 03:59:24;;;;;;;1.45;0.70;;;;;;;4.94;55.08;102100.94;6083020;28;20031;-75
2024/01/29 04:02:19;;;;;;;2.95;0.93;;;;;;;4.99;54.45;102088.41;6103710;28;20037;-73
2024/01/29 04:05:15;;;;;;;1.65;0.68;;;;;;;5.23;52.86;102091.56;6102322;28;20380;-75
2024/01/29 04:08:11;;;;;;;2.05;0.63;;;;;;;5.28;53.18;102090.41;6101396;28;20111;-75
2024/01/29 04:11:06;;;;;;;1.37;0.60;;;;;;;5.36;52.73;102087.38;6104618;28;20464;-75
2024/01/29 04:14:02;;;;;;;2.60;0.95;;;;;;;5.48;52.04;102080.63;6099138;28;20392;-76
2024/01/29 04:16:58;;;;;;;1.95;0.70;;;;;;;5.55;51.95;102089.91;6098665;28;20064;-75
2024/01/29 04:19:53;;;;;;;1.00;0.60;;;;;;;5.56;51.85;102084.56;6101855;28;20036;-75
2024/01/29 04:22:49;;;;;;;2.55;0.60;;;;;;;5.37;51.24;102068.91;6100622;28;20474;-75
2024/01/29 04:25:46;;;;;;;1.65;0.80;;;;;;;5.60;50.91;102083.47;6094453;28;20490;-75
2024/01/29 04:28:41;;;;;;;1.85;0.93;;;;;;;5.40;51.30;102079.28;6082852;28;20024;-76
2024/01/29 04:31:36;;;;;;;3.53;0.80;;;;;;;5.38;51.96;102080.28;6099909;28;20372;-76
2024/01/29 04:34:32;;;;;;;1.87;0.70;;;;;;;5.43;51.23;102066.88;6100507;28;20029;-76
2024/01/29 04:37:27;;;;;;;1.03;0.33;;;;;;;5.48;51.20;102081.50;6101107;28;20040;-75
2024/01/29 04:40:22;;;;;;;1.60;0.60;;;;;;;5.60;51.12;102090.53;6100126;28;20025;-76
2024/01/29 04:43:18;;;;;;;2.53;0.77;;;;;;;5.72;50.30;102088.09;6098540;28;20773;-76
2024/01/29 04:46:14;;;;;;;2.27;0.53;;;;;;;5.79;50.15;102091.22;6099066;28;20407;-75
2024/01/29 04:49:09;;;;;;;1.45;0.55;;;;;;;5.62;50.30;102084.25;6083893;28;20020;-75
2024/01/29 04:52:04;;;;;;;2.20;0.60;;;;;;;5.66;50.68;102104.19;6099313;28;20025;-76
2024/01/29 04:55:00;;;;;;;2.05;0.70;;;;;;;5.50;51.51;102103.31;6099671;28;20734;-75
2024/01/29 04:57:56;;;;;;;1.45;0.70;;;;;;;5.55;51.04;102103.06;6096882;28;20040;-76
2024/01/29 05:00:52;;;;;;;1.83;0.68;;;;;;;5.46;52.04;102088.63;6098248;28;20028;-75
2024/01/29 05:03:47;;;;;;;2.13;0.70;;;;;;;5.30;52.05;102071.91;6100082;28;20036;-75
2024/01/29 05:06:43;;;;;;;2.20;0.52;;;;;;;5.18;52.37;102073.41;6099405;28;20052;-76
2024/01/29 05:10:09;;;;;;;1.10;0.60;;;;;;;5.26;52.55;102086.16;6098926;28;20048;-75
2024/01/29 05:13:24;;;;;;;;;;;;;;;5.33;52.43;102087.53;6097878;28;20385;-75
2024/01/29 05:17:17;;;;;;;4.30;0.65;;;;;;;4.98;52.70;102051.66;6096029;28;19924;-75
2024/01/29 05:20:15;;;;;;;1.95;0.77;;;;;;;4.93;53.49;102040.53;6098138;28;20048;-75
2024/01/29 05:23:16;;;;;;;2.38;0.70;;;;;;;4.98;53.66;102064.81;6081362;28;20473;-74
2024/01/29 05:26:32;;;;;;;;;;;;;;;4.97;54.12;102081.53;6096710;28;20028;-75
2024/01/29 05:29:27;;;;;;;1.67;0.60;;;;;;;4.69;55.48;102072.38;6095046;28;19912;-74
2024/01/29 05:32:22;;;;;;;2.57;0.90;;;;;;;4.72;55.54;102081.88;6099625;28;20430;-74
2024/01/29 05:35:18;;;;;;;2.03;0.87;;;;;;;4.55;56.43;102072.19;6100608;28;20444;-75
2024/01/29 05:38:13;;;;;;;1.57;0.70;;;;;;;4.61;56.52;102066.66;6099690;28;20028;-75
2024/01/29 05:41:08;;;;;;;1.58;0.98;;;;;;;4.68;56.05;102082.94;6099644;28;20104;-74
2024/01/29 05:44:04;;;;;;;2.73;1.03;;;;;;;4.66;55.89;102083.03;6097190;28;20037;-75
2024/01/29 05:46:59;;;;;;;2.20;0.80;;;;;;;4.66;56.65;102069.03;6095963;28;20047;-75
2024/01/29 05:49:55;;;;;;;1.43;0.90;;;;;;;4.63;57.12;102077.91;6097266;28;20020;-75
2024/01/29 05:52:50;;;;;;;2.00;0.60;;;;;;;4.66;56.14;102069.91;6099377;28;20028;-75
2024/01/29 05:55:46;;;;;;;1.23;0.60;;;;;;;4.67;55.93;102066.31;6101855;28;20849;-75
2024/01/29 05:58:45;;;;;;;2.58;0.70;;;;;;;4.60;57.20;102067.56;6103217;28;20036;-75
2024/01/29 06:01:40;;;;;;;1.38;0.88;;;;;;;4.65;56.95;102062.94;6103801;28;20024;-76
2024/01/29 06:04:36;;;;;;;2.93;1.03;;;;;;;4.62;57.18;102057.81;6102010;28;20020;-76
2024/01/29 06:07:31;;;;;;;1.83;0.95;;;;;;;4.66;56.49;102054.13;6102293;28;20268;-76
2024/01/29 06:10:26;;;;;;;2.97;0.60;;;;;;;4.54;57.19;102070.47;6101933;28;20045;-77
2024/01/29 06:13:23;;;;;;;2.00;0.65;;;;;;;4.60;57.05;102070.19;6102492;28;20275;-76
2024/01/29 06:16:32;;;;;;;1.17;0.70;;;;;;;4.78;56.98;102068.44;6103252;28;20056;-77
2024/01/29 06:19:30;;;;;;;2.83;0.80;;;;;;;4.88;56.47;102069.69;6102109;28;20103;-76
2024/01/29 06:22:25;;;;;;;1.30;0.70;;;;;;;4.94;56.16;102077.28;6102072;28;20029;-76
2024/01/29 06:25:20;;;;;;;3.20;0.85;;;;;;;4.99;55.90;102071.78;6100935;28;20459;-77
2024/01/29 06:28:17;;;;;;;2.90;0.80;;;;;;;4.95;55.97;102049.19;6101496;28;20167;-77
2024/01/29 06:31:13;;;;;;;2.60;0.70;;;;;;;5.13;55.42;102070.16;6101489;28;20021;-76
2024/01/29 06:34:08;;;;;;;2.10;0.85;;;;;;;5.10;55.80;102065.06;6100281;28;20029;-75
2024/01/29 06:37:04;;;;;;;2.90;0.90;;;;;;;5.20;55.91;102073.31;6103189;28;20419;-75
2024/01/29 06:39:59;;;;;;;1.45;0.80;;;;;;;5.09;55.71;102075.63;6101860;28;20025;-75
2024/01/29 06:42:55;;;;;;;1.53;0.87;;;;;;;5.13;56.02;102079.81;6102595;28;20033;-75
2024/01/29 06:45:50;;;;;;;3.03;0.70;;;;;;;5.12;56.21;102080.75;6101907;28;20040;-75
2024/01/29 06:48:46;;;;;;;1.50;0.83;;;;;;;5.02;57.03;102082.13;6100642;28;20033;-75
2024/01/29 06:51:41;;;;;;;4.10;0.83;;;;;;;5.05;57.28;102082.00;6100344;28;20032;-75
2024/01/29 06:54:36;;;;;;;2.17;1.00;;;;;;;4.99;57.52;102087.53;6102958;28;20032;-75
2024/01/29 06:57:44;;;;;;;4.60;0.90;;;;;;;4.90;57.70;102074.84;6102291;28;20025;-74
2024/01/29 07:01:16;;;;;;;1.75;1.00;;;;;;;4.80;57.96;102071.84;6099843;28;20032;-75
2024/01/29 07:04:40;;;;;;;1.23;0.70;;;;;;;4.53;58.86;102050.41;6097274;28;20025;-75
2024/01/29 07:07:53;;;;;;;1.90;0.93;;;;;;;4.56;58.77;102052.88;6087303;28;20110;-76
2024/01/29 07:10:54;;;;;;;2.42;0.90;;;;;;;4.76;58.91;102084.28;6079596;28;20039;-75
2024/01/29 07:14:06;;;;;;;2.13;0.90;;;;;;;4.67;58.72;102086.50;6084226;28;20032;-75
2024/01/29 07:17:22;;;;;;;2.65;1.00;;;;;;;4.68;58.63;102099.56;6097606;28;20413;-77
2024/01/29 07:25:26;;;;;;;2.50;1.00;;;;;;;4.71;59.48;102122.19;6096995;28;20032;-77
2024/01/29 07:29:17;;;;;;;1.13;0.68;;;;;;;4.55;60.11;102085.31;6088296;28;20091;-77
2024/01/29 07:32:14;;;;;;;3.28;1.10;;;;;;;4.68;59.70;102103.97;6075469;28;20041;-77
2024/01/29 07:39:30;;;;;;;2.42;0.80;;;;;;;4.89;59.67;102104.72;6097368;28;20392;-75
2024/01/29 07:42:31;;;;;;;2.67;1.10;;;;;;;4.97;59.60;102127.06;6061256;28;20647;-76
2024/01/29 07:45:27;;;;;;;3.20;1.10;;;;;;;5.02;59.42;102121.56;6107043;28;20058;-76
2024/01/29 07:48:22;;;;;;;2.33;1.00;;;;;;;5.16;59.34;102134.88;6094672;28;20059;-76
2024/01/29 07:51:18;;;;;;;2.55;1.00;;;;;;;5.14;58.70;102140.19;6096800;28;20251;-76
2024/01/29 07:54:13;;;;;;;3.00;0.90;;;;;;;5.11;59.55;102139.53;6096398;28;20029;-75
2024/01/29 07:57:09;;;;;;;1.25;0.55;;;;;;;5.07;59.51;102137.97;6098266;28;20029;-75
2024/01/29 08:00:20;;;;;;;6.13;1.50;;;;;;;5.14;59.55;102134.94;6094572;28;20032;-74
2024/01/29 08:03:18;;;;;;;2.70;0.82;;;;;;;5.04;59.27;102106.56;6069553;28;20665;-76
2024/01/29 08:07:05;;;;;;;4.95;1.15;;;;;;;5.05;59.47;102109.13;6082269;28;20025;-76
2024/01/29 08:10:03;;;;;;;3.03;1.40;;;;;;;5.31;59.67;102134.09;6104970;28;20037;-77
2024/01/29 08:13:09;;;;;;;2.10;0.80;;;;;;;5.32;59.33;102125.28;6113053;28;20452;-76
2024/01/29 08:16:04;;;;;;;1.50;0.80;;;;;;;5.51;58.91;102149.72;6097179;28;20091;-76
2024/01/29 08:19:06;;;;;;;2.47;1.00;;;;;;;5.65;58.79;102136.72;6105804;28;20032;-77
2024/01/29 08:22:01;;;;;;;2.85;1.13;;;;;;;5.83;57.95;102135.75;6095844;28;20301;-76
2024/01/29 08:24:56;;;;;;;3.53;1.20;;;;;;;5.95;57.83;102124.59;6099297;28;20041;-75
2024/01/29 08:27:52;;;;;;;3.00;1.40;;;;;;;6.09;57.28;102130.94;6100335;28;20372;-74
2024/01/29 08:30:47;;;;;;;2.47;0.90;;;;;;;6.27;56.40;102133.41;6099752;28;20033;-76
2024/01/29 08:33:42;;;;;;;1.93;1.10;;;;;;;6.25;56.67;102132.63;6101461;28;20056;-75
2024/01/29 08:36:37;;;;;;;2.93;1.30;;;;;;;6.05;57.59;102124.97;6113612;28;20032;-74
2024/01/29 08:39:33;;;;;;;5.93;1.53;;;;;;;6.34;57.02;102136.53;6096062;28;20488;-75
2024/01/29 08:42:29;;;;;;;5.10;1.73;;;;;;;6.48;57.01;102140.13;6096113;28;20021;-76
2024/01/29 08:45:24;;;;;;;1.80;1.00;;;;;;;6.71;56.55;102135.38;6105135;28;20036;-76
2024/01/29 08:48:19;;;;;;;3.78;1.40;;;;;;;6.98;55.65;102139.94;6100623;28;20024;-75
2024/01/29 08:51:15;;;;;;;4.17;1.23;;;;;;;7.04;56.04;102139.56;6099417;28;20066;-76
2024/01/29 08:54:10;;;;;;;3.00;1.33;;;;;;;7.32;55.47;102140.59;6099686;28;20452;-76
2024/01/29 08:57:05;;;;;;;3.07;1.40;;;;;;;7.44;54.60;102137.25;6092598;28;20028;-77
2024/01/29 09:00:02;;;;;;;2.63;1.03;;;;;;;7.54;53.91;102143.66;6092524;28;20056;-76
2024/01/29 09:02:59;;;;;;;3.05;1.08;;;;;;;7.36;53.84;102139.47;6093588;28;20306;-73
2024/01/29 09:05:54;;;;;;;2.78;1.33;;;;;;;7.13;54.77;102128.47;6093945;28;20635;-74
2024/01/29 09:08:50;;;;;;;2.40;1.07;;;;;;;6.98;55.74;102132.03;6091583;28;20078;-75
2024/01/29 09:11:45;;;;;;;2.05;1.15;;;;;;;6.88;55.96;102144.00;6104527;28;20283;-74
2024/01/29 09:14:41;;;;;;;2.53;0.98;;;;;;;6.86;55.83;102145.03;6096510;28;20025;-76
2024/01/29 09:17:51;;;;;;;2.83;1.15;;;;;;;6.92;56.03;102150.81;6094770;28;20036;-77
2024/01/29 09:20:47;;;;;;;3.90;1.10;;;;;;;6.69;56.36;102109.06;6081062;28;20038;-74
2024/01/29 09:23:42;;;;;;;3.70;1.40;;;;;;;6.83;57.01;102139.94;6086835;28;20020;-75
2024/01/29 09:26:37;;;;;;;2.73;1.20;;;;;;;6.82;56.72;102112.72;6111166;28;20340;-74
2024/01/29 09:29:32;;;;;;;3.53;1.20;;;;;;;6.85;56.94;102117.00;6103843;28;20037;-73
2024/01/29 09:32:28;;;;;;;2.63;1.00;;;;;;;6.97;56.77;102127.66;6104299;28;20407;-75
2024/01/29 09:35:29;;;;;;;2.03;0.90;;;;;;;6.90;56.62;102107.84;6090482;28;20035;-75
2024/01/29 09:38:31;;;;;;;2.83;1.33;;;;;;;7.18;56.12;102109.75;6114997;28;20048;-74
2024/01/29 09:41:34;;;;;;;3.58;1.65;;;;;;;7.21;56.00;102106.94;6087944;28;20024;-74
2024/01/29 09:44:39;;;;;;;4.43;1.40;;;;;;;7.42;56.21;102125.94;6114214;28;20020;-74
2024/01/29 09:47:36;;;;;;;4.47;1.23;;;;;;;7.43;56.18;102114.41;6102053;28;20107;-75
2024/01/29 09:50:32;;;;;;;3.38;1.42;;;;;;;7.48;56.83;102129.03;6104422;28;20032;-74
2024/01/29 09:53:28;;;;;;;3.30;1.30;;;;;;;7.47;56.45;102111.53;6107126;28;20045;-75
2024/01/29 09:56:24;;;;;;;3.80;1.40;;;;;;;7.78;56.20;102121.06;6106561;28;20029;-76
2024/01/29 09:59:19;;;;;;;3.27;1.30;;;;;;;8.23;54.89;102123.53;6105784;28;20056;-74
2024/01/29 10:02:19;;;;;;;1.93;1.10;;;;;;;8.32;55.12;102122.09;6105396;28;20021;-74
2024/01/29 10:05:15;;;;;;;2.38;1.10;;;;;;;7.97;55.86;102126.91;6103337;28;20570;-77
2024/01/29 10:08:11;;;;;;;3.50;1.20;;;;;;;7.73;56.47;102129.28;6102768;28;20025;-76
2024/01/29 10:11:07;;;;;;;2.55;1.20;;;;;;;7.78;56.30;102127.19;6100702;28;20064;-75
2024/01/29 10:14:02;;;;;;;2.67;1.17;;;;;;;7.78;57.02;102135.13;6102243;28;20031;-74
2024/01/29 10:16:58;;;;;;;4.00;1.53;;;;;;;7.88;56.77;102140.69;6089126;28;20039;-76
2024/01/29 10:19:53;;;;;;;3.63;1.40;;;;;;;7.75;57.23;102132.66;6106641;28;20127;-76
2024/01/29 10:22:48;;;;;;;5.03;1.43;;;;;;;7.70;57.53;102123.31;6102569;28;20147;-76
2024/01/29 10:25:54;;;;;;;4.00;1.20;;;;;;;7.68;58.09;102120.78;6107820;28;20256;-76
2024/01/29 10:29:07;;;;;;;3.08;1.42;;;;;;;7.86;57.73;102118.81;6104130;28;20056;-76
2024/01/29 10:32:02;;;;;;;5.38;1.70;;;;;;;8.31;56.77;102123.91;6106130;28;20024;-77
2024/01/29 10:34:58;;;;;;;3.05;1.27;;;;;;;8.71;55.35;102113.41;6101906;28;20028;-77
2024/01/29 10:38:00;;;;;;;3.30;1.40;;;;;;;8.95;54.66;102122.41;6099328;28;20037;-76
2024/01/29 10:40:58;;;;;;;4.38;1.10;;;;;;;9.22;54.43;102127.66;6105290;28;20460;-76
2024/01/29 10:43:54;;;;;;;3.08;1.50;;;;;;;9.29;54.48;102116.56;6107988;28;20025;-75
2024/01/29 10:46:49;;;;;;;5.40;1.70;;;;;;;9.42;52.40;102106.84;6105188;28;20064;-75
2024/01/29 10:49:45;;;;;;;3.42;1.27;;;;;;;9.59;53.39;102116.28;6102766;28;20033;-75
2024/01/29 10:52:40;;;;;;;3.13;1.40;;;;;;;9.46;52.92;102100.38;6108986;28;20415;-76
2024/01/29 10:55:36;;;;;;;3.33;1.30;;;;;;;9.69;52.88;102109.41;6103352;28;20448;-77
2024/01/29 10:58:32;;;;;;;2.95;1.33;;;;;;;9.72;52.15;102098.59;6098641;28;20036;-76
2024/01/29 11:01:28;;;;;;;4.07;1.50;;;;;;;9.73;52.83;102110.03;6105571;28;20460;-77
2024/01/29 11:04:23;;;;;;;3.70;1.30;;;;;;;9.85;52.48;102112.66;6108323;28;20448;-76
2024/01/29 11:07:22;;;;;;;3.03;1.33;;;;;;;9.91;52.71;102108.75;6097791;28;20110;-77
2024/01/29 11:10:21;;;;;;;3.67;1.40;;;;;;;9.93;52.15;102106.84;6102066;28;20021;-76
2024/01/29 11:13:17;;;;;;;2.63;1.25;;;;;;;9.71;53.24;102119.88;6112148;28;20429;-75
2024/01/29 11:16:13;;;;;;;2.78;1.48;;;;;;;9.80;53.25;102112.16;6100693;28;20021;-76
2024/01/29 11:19:08;;;;;;;6.25;1.23;;;;;;;9.78;53.33;102118.50;6093040;28;20080;-76
2024/01/29 11:22:04;;;;;;;3.40;1.20;;;;;;;9.65;53.48;102112.38;6099756;28;20478;-77
2024/01/29 11:25:05;;;;;;;1.85;1.00;;;;;;;9.86;53.88;102113.53;6102391;28;20033;-76
2024/01/29 11:28:01;;;;;;;2.88;1.30;;;;;;;10.03;53.90;102107.88;6104660;28;20025;-75
2024/01/29 11:30:56;;;;;;;5.28;1.60;;;;;;;9.89;54.24;102102.72;6101283;28;20087;-75
2024/01/29 11:33:52;;;;;;;4.93;1.27;;;;;;;9.73;54.54;102100.25;6107794;28;20033;-76
2024/01/29 11:37:00;;;;;;;3.97;1.60;;;;;;;9.73;54.53;102099.44;6107493;28;20529;-76
2024/01/29 11:39:55;;;;;;;3.45;1.42;;;;;;;9.61;55.07;102108.22;6101630;28;20029;-78
2024/01/29 11:42:51;;;;;;;3.60;1.70;;;;;;;9.50;56.06;102115.13;6102752;28;20048;-78
2024/01/29 11:45:48;;;;;;;2.70;1.42;;;;;;;9.58;56.66;102123.38;6109592;28;20032;-76
2024/01/29 11:48:58;;;;;;;3.15;1.50;;;;;;;9.46;56.69;102103.00;6102798;28;20112;-80
2024/01/29 11:51:54;;;;;;;3.58;1.80;;;;;;;9.45;57.90;102100.50;6097270;28;20035;-76
2024/01/29 11:54:50;;;;;;;3.97;1.70;;;;;;;9.86;55.89;102117.03;6103914;28;20028;-78
2024/01/29 11:57:45;;;;;;;4.28;1.70;;;;;;;9.82;56.19;102112.03;6106126;28;20052;-76
2024/01/29 12:00:42;;;;;;;3.15;1.60;;;;;;;9.64;57.39;102100.06;6108710;28;20055;-77
2024/01/29 12:03:38;;;;;;;3.55;1.60;;;;;;;9.62;58.09;102108.09;6097359;28;20460;-76
2024/01/29 12:06:34;;;;;;;3.63;1.58;;;;;;;9.62;57.75;102096.69;6104378;28;20032;-78
2024/01/29 12:17:40;;;;;;;3.25;1.40;;;;;;;9.78;56.95;102107.91;6102507;28;20041;-78
2024/01/29 12:21:11;;;;;;;7.50;1.80;;;;;;;9.59;58.14;102081.84;6112360;28;20024;-77
2024/01/29 12:24:57;;;;;;;7.10;1.95;;;;;;;9.90;57.19;102115.00;6032861;28;20041;-75
2024/01/29 12:44:15;;;;;;;7.68;1.70;;;;;;;9.92;58.20;102118.41;6065926;28;21819;-76
2024/01/29 12:47:44;;;;;;;5.72;1.73;;;;;;;9.66;58.95;102116.69;6059361;28;20050;-75
2024/01/29 12:50:44;;;;;;;4.63;1.92;;;;;;;9.58;59.31;102081.00;6074032;28;20087;-74
2024/01/29 12:54:02;;;;;;;4.07;1.90;;;;;;;9.78;60.19;102113.22;6071067;28;20021;-76
2024/01/29 12:57:01;;;;;;;6.22;1.90;;;;;;;9.66;59.81;102092.84;6107517;28;20051;-77
2024/01/29 13:00:05;;;;;;;3.65;1.50;;;;;;;9.61;59.65;102076.44;6118839;28;20042;-76
2024/01/29 13:03:00;;;;;;;6.30;1.65;;;;;;;9.72;59.40;102079.19;6134004;28;20443;-75
2024/01/29 13:05:57;;;;;;;2.73;1.27;;;;;;;10.07;59.41;102098.75;6149860;28;20028;-78
2024/01/29 13:08:52;;;;;;;3.08;1.83;;;;;;;10.06;59.02;102095.25;6141137;28;20027;-76
2024/01/29 13:11:59;;;;;;;4.60;2.10;;;;;;;9.78;59.40;102073.47;6124315;28;20082;-77
2024/01/29 13:15:04;;;;;;;5.88;2.05;;;;;;;9.96;60.28;102109.28;6115902;28;20035;-79
2024/01/29 13:33:27;;;;;;;3.60;1.50;;;;;;;9.84;62.09;102123.34;6542140;22;20072;-79
2024/01/29 13:36:22;;;;;;;5.63;2.40;;;;;;;9.94;61.37;102124.44;6101676;28;20029;-77
2024/01/29 13:39:30;;;;;;;6.13;1.90;;;;;;;9.91;62.26;102120.19;6088234;28;20024;-79
2024/01/29 13:46:23;;;;;;;5.22;2.13;;;;;;;9.86;62.47;102102.94;6103351;28;20028;-77
2024/01/29 13:49:21;;;;;;;4.85;2.03;;;;;;;9.83;62.93;102113.75;6098831;28;20024;-77
2024/01/29 13:53:06;;;;;;;5.32;2.15;;;;;;;9.86;63.31;102140.88;6079179;28;20025;-79
2024/01/29 14:03:49;;;;;;;6.50;2.10;;;;;;;9.95;64.52;102104.91;6438493;22;20403;-76
2024/01/29 14:11:15;;;;;;;5.82;2.60;;;;;;;10.10;63.38;102133.00;6094920;28;20013;-77
2024/01/29 14:18:13;;;;;;;5.38;2.50;;;;;;;9.91;63.95;102114.03;6046229;28;20116;-77
2024/01/29 14:21:09;;;;;;;8.43;2.30;;;;;;;10.14;63.59;102137.16;6113459;28;20238;-79
2024/01/29 14:24:04;;;;;;;6.13;2.53;;;;;;;10.06;64.43;102121.75;6105326;28;20024;-76
2024/01/29 14:27:00;;;;;;;7.00;2.42;;;;;;;9.89;64.54;102111.50;6099012;28;20033;-78
2024/01/29 14:29:56;;;;;;;4.80;2.42;;;;;;;9.87;65.09;102128.44;6086247;28;20039;-79
2024/01/29 14:32:52;;;;;;;5.63;2.35;;;;;;;9.97;66.18;102145.44;6110350;28;20028;-77
2024/01/29 14:35:47;;;;;;;6.63;2.80;;;;;;;9.88;67.19;102140.75;6110440;28;20503;-76
2024/01/29 14:38:55;;;;;;;4.53;2.30;;;;;;;9.75;67.39;102134.63;6090566;28;20263;-78
2024/01/29 14:41:51;;;;;;;6.03;2.38;;;;;;;9.64;68.55;102118.59;6111828;28;20480;-78
2024/01/29 14:44:46;;;;;;;6.07;2.38;;;;;;;9.71;69.10;102130.47;6088936;28;20017;-77
2024/01/29 14:47:42;;;;;;;6.07;2.22;;;;;;;9.59;68.98;102125.06;6096292;28;20083;-79
2024/01/29 14:50:40;;;;;;;3.87;2.27;;;;;;;9.69;69.39;102140.31;6098968;28;20028;-76
2024/01/29 14:53:36;;;;;;;4.45;2.20;;;;;;;9.47;70.22;102115.31;6088532;28;20032;-77
2024/01/29 14:56:31;;;;;;;6.37;2.40;;;;;;;9.56;70.95;102141.19;6101840;28;20029;-78
2024/01/29 14:59:27;;;;;;;5.15;2.13;;;;;;;9.49;70.87;102137.22;6104049;28;20471;-76
2024/01/29 15:02:22;;;;;;;3.45;1.95;;;;;;;9.41;72.03;102142.19;6106917;28;20025;-76
2024/01/29 15:05:17;;;;;;;5.30;2.40;;;;;;;9.29;73.03;102153.63;6100474;28;20025;-76
2024/01/29 15:08:13;;;;;;;5.37;2.27;;;;;;;9.20;74.54;102154.22;6102971;28;21946;-79
2024/01/29 15:11:09;;;;;;;5.15;2.38;;;;;;;9.09;76.17;102146.16;6078107;28;20051;-77
2024/01/29 15:14:05;;;;;;;5.47;2.38;;;;;;;9.01;77.16;102143.16;6107522;28;20408;-78